createdAt,value
2022-11-09T00:01:50.093Z,17.33
2022-11-09T00:06:54.213Z,16.93
2022-11-09T00:11:57.552Z,17.87
2022-11-09T00:17:01.156Z,17.80
2022-11-09T00:22:04.373Z,17.33
2022-11-09T00:27:07.609Z,17.60
2022-11-09T05:31:09.887Z,17.13
2022-11-09T05:36:12.938Z,17.67
2022-11-09T05:41:16.090Z,17.90
2022-11-09T05:46:19.671Z,28.30
2022-11-09T05:51:22.595Z,20.83
2022-11-09T05:56:25.554Z,17.33
2022-11-09T06:01:28.417Z,17.40
2022-11-09T06:06:31.479Z,18.00
2022-11-09T06:11:34.462Z,17.97
2022-11-09T06:16:37.854Z,16.83
2022-11-09T06:21:43.466Z,17.40
2022-11-09T06:26:46.463Z,17.53
2022-11-09T06:31:49.597Z,17.37
2022-11-09T06:36:52.799Z,17.23
2022-11-09T06:41:55.956Z,18.63
2022-11-09T06:46:59.003Z,19.97
2022-11-09T06:52:02.008Z,20.47
2022-11-09T06:57:05.248Z,21.60
2022-11-09T07:02:10.740Z,21.77
2022-11-09T07:07:13.711Z,20.97
2022-11-09T07:12:16.871Z,21.37
2022-11-09T07:17:19.907Z,20.37
2022-11-09T07:22:22.878Z,20.13
2022-11-09T07:27:28.393Z,21.03
2022-11-09T07:33:06.885Z,20.33
2022-11-09T07:38:01.985Z,19.77
2022-11-09T07:43:06.569Z,16.77
2022-11-09T07:48:11.309Z,17.93
2022-11-09T07:53:15.320Z,15.77
2022-11-09T07:58:18.263Z,15.70
2022-11-09T08:03:22.577Z,15.67
2022-11-09T08:08:25.962Z,16.10
2022-11-09T08:13:28.884Z,15.80
2022-11-09T08:18:31.899Z,14.90
2022-11-09T08:23:35.171Z,15.37
2022-11-09T08:28:38.445Z,14.87
2022-11-09T08:33:42.559Z,14.07
2022-11-09T08:38:46.435Z,13.10
2022-11-09T08:43:52.729Z,13.87
2022-11-09T08:49:02.188Z,13.80
2022-11-09T08:54:34.214Z,15.17
2022-11-09T08:59:46.356Z,13.50
2022-11-09T09:04:57.140Z,14.07
2022-11-09T09:10:10.286Z,12.63
2022-11-09T09:15:13.711Z,12.77
2022-11-09T09:20:18.139Z,12.43
2022-11-09T09:25:22.579Z,12.23
2022-11-09T09:30:25.545Z,11.77
2022-11-09T09:35:29.117Z,11.97
2022-11-09T09:40:43.775Z,10.93
2022-11-09T09:45:51.427Z,11.77
2022-11-09T09:50:57.350Z,11.47
2022-11-09T09:56:25.671Z,11.53
2022-11-09T10:01:43.191Z,11.67
2022-11-09T10:07:25.207Z,11.93
2022-11-09T10:12:49.831Z,10.00
2022-11-09T10:17:52.660Z,10.70
2022-11-09T10:23:13.993Z,11.33
2022-11-09T10:28:17.902Z,11.77
2022-11-09T10:33:22.641Z,11.20
2022-11-09T10:38:37.801Z,11.37
2022-11-09T10:43:40.809Z,9.30
2022-11-09T10:48:43.877Z,9.97
2022-11-09T10:53:46.693Z,10.23
2022-11-09T10:58:52.200Z,8.97
2022-11-09T11:03:57.547Z,8.47
2022-11-09T11:09:08.565Z,8.83
2022-11-09T11:14:28.800Z,9.27
2022-11-09T11:19:41.430Z,9.40
2022-11-09T11:25:01.696Z,9.13
2022-11-09T11:30:04.882Z,8.63
2022-11-09T11:35:38.910Z,10.03
2022-11-09T11:40:47.701Z,10.07
2022-11-09T11:46:04.814Z,11.57
2022-11-09T11:51:09.783Z,10.57
2022-11-09T11:56:23.593Z,9.93
2022-11-09T12:01:42.326Z,9.50
2022-11-09T12:06:51.392Z,9.30
2022-11-09T12:12:16.240Z,8.67
2022-11-09T12:17:59.373Z,8.47
2022-11-09T12:23:27.551Z,8.47
2022-11-09T12:28:56.071Z,8.33
2022-11-09T12:34:05.821Z,9.20
2022-11-09T12:39:22.838Z,8.13
2022-11-09T12:44:30.403Z,8.20
2022-11-09T12:49:43.344Z,8.90
2022-11-09T12:54:49.583Z,7.70
2022-11-09T12:59:54.863Z,8.57
2022-11-09T13:04:59.994Z,8.57
2022-11-09T13:10:03.732Z,8.10
2022-11-09T13:15:24.624Z,8.57
2022-11-09T13:26:00.025Z,8.57
2022-11-09T13:31:05.693Z,8.60
2022-11-09T13:36:08.623Z,7.93
2022-11-09T13:41:30.532Z,9.13
2022-11-09T13:46:38.450Z,8.70
2022-11-09T13:51:47.812Z,9.07
2022-11-09T13:56:53.180Z,9.60
2022-11-09T14:01:58.374Z,9.23
2022-11-09T14:07:30.898Z,9.33
2022-11-09T14:13:03.523Z,9.30
2022-11-09T14:18:12.604Z,9.43
2022-11-09T14:23:21.031Z,9.43
2022-11-09T14:28:30.391Z,9.50
2022-11-09T14:33:35.599Z,9.67
2022-11-09T14:38:46.932Z,9.07
2022-11-09T14:43:55.418Z,9.50
2022-11-09T14:49:02.340Z,10.10
2022-11-09T14:54:12.159Z,9.63
2022-11-09T14:59:24.860Z,11.03
2022-11-09T15:04:28.626Z,10.43
2022-11-09T15:09:43.765Z,10.50
2022-11-09T15:15:07.205Z,11.37
2022-11-09T15:20:12.827Z,11.30
2022-11-09T15:25:32.830Z,12.07
2022-11-09T15:30:35.673Z,11.00
2022-11-09T15:35:53.021Z,11.87
2022-11-09T15:40:56.112Z,12.33
2022-11-09T15:46:01.283Z,12.00
2022-11-09T15:51:04.299Z,12.93
2022-11-09T15:56:09.904Z,12.37
2022-11-09T16:01:15.816Z,13.37
2022-11-09T16:06:19.628Z,14.17
2022-11-09T16:11:25.405Z,13.57
2022-11-09T16:16:28.609Z,14.70
2022-11-09T16:21:31.524Z,14.40
2022-11-09T16:26:37.634Z,14.90
2022-11-09T16:31:51.358Z,13.20
2022-11-09T16:36:56.997Z,14.53
2022-11-09T16:42:06.761Z,17.50
2022-11-09T16:47:12.735Z,16.57
2022-11-09T16:52:16.318Z,16.77
2022-11-09T16:57:19.281Z,16.57
2022-11-09T17:02:23.970Z,17.17
2022-11-09T17:07:27.095Z,17.83
2022-11-09T17:12:31.431Z,16.17
2022-11-09T17:17:34.433Z,17.43
2022-11-09T17:22:41.638Z,18.00
2022-11-09T17:27:47.813Z,17.47
2022-11-09T17:32:51.179Z,18.83
2022-11-09T17:37:54.087Z,17.93
2022-11-09T17:42:57.272Z,18.40
2022-11-09T17:48:01.873Z,18.00
2022-11-09T17:53:04.948Z,17.90
2022-11-09T17:58:07.878Z,20.03
2022-11-09T18:03:13.647Z,20.03
2022-11-09T18:08:16.658Z,20.10
2022-11-09T18:13:19.786Z,19.67
2022-11-09T18:18:25.543Z,19.13
2022-11-09T18:23:28.435Z,18.87
2022-11-09T18:28:31.539Z,18.90
2022-11-09T18:33:34.982Z,20.10
2022-11-09T18:38:51.204Z,18.70
2022-11-09T18:43:54.614Z,19.70
2022-11-09T18:48:57.651Z,19.80
2022-11-09T18:54:00.672Z,20.03
2022-11-09T18:59:04.126Z,18.97
2022-11-09T19:04:07.088Z,20.43
2022-11-09T19:09:30.097Z,20.17
2022-11-09T19:14:36.378Z,21.20
2022-11-09T19:19:39.777Z,19.97
2022-11-09T19:24:42.863Z,21.40
2022-11-09T19:29:47.089Z,19.90
2022-11-09T19:34:50.197Z,20.23
2022-11-09T19:39:53.347Z,20.00
2022-11-09T19:44:58.003Z,21.60
2022-11-09T19:50:00.983Z,20.33
2022-11-09T19:55:05.410Z,19.93
2022-11-09T20:00:09.444Z,18.67
2022-11-09T20:05:15.921Z,18.63
2022-11-09T20:10:19.146Z,19.10
2022-11-09T20:15:25.282Z,19.10
2022-11-09T20:20:28.500Z,19.63
2022-11-09T20:25:31.773Z,18.37
2022-11-09T20:30:40.592Z,18.77
2022-11-09T20:35:53.860Z,19.50
2022-11-09T20:41:09.200Z,20.57
2022-11-09T20:46:24.057Z,19.33
2022-11-09T20:51:30.452Z,20.67
2022-11-09T20:56:42.584Z,20.20
2022-11-09T21:01:48.630Z,19.87
2022-11-09T21:06:51.972Z,21.87
2022-11-09T21:12:13.527Z,18.90
2022-11-09T21:17:24.521Z,18.63
2022-11-09T21:23:05.929Z,17.77
2022-11-09T21:28:34.547Z,17.43
2022-11-09T21:33:37.844Z,17.33
2022-11-09T21:38:41.608Z,17.33
2022-11-09T21:43:46.057Z,16.60
2022-11-09T21:48:52.179Z,15.87
2022-11-09T21:53:55.126Z,15.13
2022-11-09T21:58:58.210Z,16.23
2022-11-09T22:04:01.546Z,15.63
2022-11-09T22:09:12.148Z,15.10
2022-11-09T22:20:37.030Z,15.63
2022-11-09T22:25:45.217Z,14.93
2022-11-09T22:31:04.620Z,17.00
2022-11-09T22:36:09.780Z,15.53
2022-11-09T22:41:14.388Z,13.90
2022-11-09T22:46:18.111Z,12.30
2022-11-09T22:51:21.210Z,14.37
2022-11-09T22:56:24.217Z,15.13
2022-11-09T23:01:27.211Z,15.20
2022-11-09T23:06:30.328Z,15.17
2022-11-09T23:11:33.446Z,15.43
2022-11-09T23:16:36.408Z,14.40
2022-11-09T23:21:39.296Z,15.03
2022-11-09T23:26:42.183Z,15.80
2022-11-09T23:31:45.231Z,16.33
2022-11-09T23:36:48.234Z,14.47
2022-11-09T23:41:51.672Z,14.67
2022-11-09T23:46:54.584Z,15.00
2022-11-09T23:51:57.732Z,13.63
2022-11-09T23:57:00.737Z,14.00
